Time;durP1;ratioP1;P1;durP2;ratioP2;P2;SDS_P1;SDS_P2;PMS_P1;PMS_P2;Temp;Humidity;BMP_temperature;BMP_pressure;BME280_temperature;BME280_humidity;BME280_pressure;Samples;Min_cycle;Max_cycle;Signal;HPM_P1;HPM_P2
2023/05/31 00:01:51;;;;;;;11.07;2.70;;;16.30;75.90;;;;;;5083024;28;20267;-76
2023/05/31 00:04:40;;;;;;;5.38;2.28;;;16.10;76.00;;;;;;5067036;28;20296;-76
2023/05/31 00:07:29;;;;;;;3.72;2.08;;;16.10;76.30;;;;;;5081158;28;20328;-76
2023/05/31 00:10:19;;;;;;;3.17;2.00;;;16.10;76.50;;;;;;5065842;28;20211;-76
2023/05/31 00:13:08;;;;;;;13.20;2.35;;;16.10;76.80;;;;;;5082079;28;20306;-76
2023/05/31 00:15:57;;;;;;;7.90;2.40;;;16.10;76.90;;;;;;5082101;28;20761;-76
2023/05/31 00:18:46;;;;;;;7.97;2.70;;;16.00;76.90;;;;;;5061064;28;20239;-77
2023/05/31 00:21:35;;;;;;;9.63;2.50;;;15.90;77.00;;;;;;5056227;28;20661;-77
2023/05/31 00:24:24;;;;;;;5.03;2.10;;;15.90;77.40;;;;;;5050278;28;20223;-75
2023/05/31 00:27:15;;;;;;;5.72;2.45;;;15.70;76.90;;;;;;5059259;28;20262;-76
2023/05/31 00:30:04;;;;;;;6.25;2.20;;;15.50;78.00;;;;;;5068176;28;20235;-78
2023/05/31 00:32:53;;;;;;;6.15;2.40;;;15.70;78.20;;;;;;5091804;28;20269;-76
2023/05/31 00:35:42;;;;;;;5.03;2.38;;;15.70;77.10;;;;;;5074077;28;20255;-77
2023/05/31 00:38:31;;;;;;;8.55;2.47;;;15.50;77.00;;;;;;5081159;28;20464;-75
2023/05/31 00:41:20;;;;;;;5.65;2.53;;;15.50;77.20;;;;;;5067595;28;20886;-75
2023/05/31 00:44:11;;;;;;;6.00;2.33;;;15.60;77.50;;;;;;5069737;28;20264;-75
2023/05/31 00:46:59;;;;;;;6.03;2.20;;;15.50;77.00;;;;;;5083406;28;20774;-75
2023/05/31 00:49:48;;;;;;;5.95;2.30;;;15.40;77.30;;;;;;5070352;28;20328;-75
2023/05/31 00:52:41;;;;;;;5.95;2.15;;;15.40;78.00;;;;;;5058414;28;20228;-75
2023/05/31 00:55:31;;;;;;;9.23;2.63;;;15.40;78.20;;;;;;5071852;28;20452;-75
2023/05/31 00:58:20;;;;;;;6.15;2.80;;;15.60;78.60;;;;;;5090826;28;20238;-74
2023/05/31 01:01:11;;;;;;;5.35;2.80;;;15.50;77.70;;;;;;5066781;28;20227;-76
2023/05/31 01:04:02;;;;;;;6.75;2.67;;;15.40;78.00;;;;;;5073043;28;20231;-76
2023/05/31 01:06:52;;;;;;;7.70;2.72;;;15.50;78.80;;;;;;5064252;28;20231;-75
2023/05/31 01:09:42;;;;;;;17.77;3.30;;;15.40;78.00;;;;;;5074656;28;20333;-76
2023/05/31 01:12:37;;;;;;;6.10;2.83;;;15.40;78.60;;;;;;5050232;28;20229;-76
2023/05/31 01:15:32;;;;;;;8.80;3.25;;;15.40;78.00;;;;;;5068692;28;20226;-76
2023/05/31 01:18:32;;;;;;;7.00;2.80;;;15.30;78.00;;;;;;5088977;28;20219;-75
2023/05/31 01:21:25;;;;;;;7.30;2.75;;;15.30;78.40;;;;;;5064136;28;20840;-75
2023/05/31 01:24:26;;;;;;;7.60;2.80;;;15.10;79.00;;;;;;5078644;28;20242;-77
2023/05/31 01:27:18;;;;;;;5.45;2.42;;;15.00;79.20;;;;;;5056122;28;20231;-78
2023/05/31 01:30:10;;;;;;;4.85;2.47;;;15.00;79.00;;;;;;5073959;28;20827;-77
2023/05/31 01:33:00;;;;;;;5.93;2.70;;;15.10;79.50;;;;;;5087857;28;20296;-78
2023/05/31 01:35:50;;;;;;;6.57;2.67;;;15.00;80.00;;;;;;5079528;28;20230;-78
2023/05/31 01:38:39;;;;;;;8.02;2.97;;;14.90;79.30;;;;;;5057589;28;20231;-78
2023/05/31 01:41:29;;;;;;;4.55;2.28;;;14.80;79.70;;;;;;5066147;28;20232;-76
2023/05/31 01:44:20;;;;;;;4.55;2.35;;;14.90;79.70;;;;;;5054643;28;20224;-77
2023/05/31 01:47:10;;;;;;;4.82;2.40;;;14.80;80.20;;;;;;5079371;28;20227;-78
2023/05/31 01:49:59;;;;;;;4.35;2.30;;;14.90;79.40;;;;;;5074058;28;20216;-77
2023/05/31 01:52:48;;;;;;;6.35;2.35;;;14.90;80.80;;;;;;5062300;28;20222;-76
2023/05/31 01:55:37;;;;;;;5.45;2.03;;;14.70;80.30;;;;;;5064311;28;20239;-76
2023/05/31 01:58:28;;;;;;;5.18;2.45;;;14.70;80.30;;;;;;5050200;28;20228;-78
2023/05/31 02:01:19;;;;;;;5.68;2.00;;;14.40;80.90;;;;;;5071134;28;20231;-74
2023/05/31 02:04:09;;;;;;;10.20;2.38;;;14.30;81.60;;;;;;5063751;28;20219;-75
2023/05/31 02:07:00;;;;;;;3.17;1.85;;;14.60;81.30;;;;;;5053645;28;20204;-73
2023/05/31 02:09:48;;;;;;;7.50;2.30;;;14.50;81.20;;;;;;5053213;28;20266;-75
2023/05/31 02:12:37;;;;;;;5.45;2.05;;;14.50;81.60;;;;;;5065556;28;20235;-75
2023/05/31 02:15:26;;;;;;;4.30;2.00;;;14.50;81.90;;;;;;5075112;28;20714;-75
2023/05/31 02:18:18;;;;;;;6.50;2.10;;;14.50;81.60;;;;;;5061282;28;20333;-74
2023/05/31 02:21:07;;;;;;;4.82;1.80;;;14.50;81.80;;;;;;5060054;28;20215;-77
2023/05/31 02:23:57;;;;;;;5.60;1.80;;;14.40;82.50;;;;;;5068759;28;20227;-81
2023/05/31 02:26:46;;;;;;;4.05;1.80;;;14.30;83.20;;;;;;5068555;28;20276;-80
2023/05/31 02:29:34;;;;;;;3.67;1.83;;;14.20;83.40;;;;;;5061118;28;20323;-78
2023/05/31 02:32:23;;;;;;;7.90;2.10;;;14.30;84.20;;;;;;5061893;28;20741;-79
2023/05/31 02:35:17;;;;;;;6.78;2.78;;;14.40;83.40;;;;;;5061132;28;20345;-78
2023/05/31 02:38:06;;;;;;;5.05;2.13;;;14.50;83.50;;;;;;5057194;28;20224;-78
2023/05/31 02:40:55;;;;;;;4.15;1.92;;;14.50;83.30;;;;;;5068875;28;20264;-75
2023/05/31 02:43:43;;;;;;;4.68;1.88;;;14.20;83.60;;;;;;5051555;28;20227;-76
2023/05/31 02:46:33;;;;;;;4.40;1.90;;;14.50;84.50;;;;;;5067920;28;20309;-76
2023/05/31 02:49:22;;;;;;;5.15;1.90;;;14.60;83.90;;;;;;5055427;28;20220;-76
2023/05/31 02:52:13;;;;;;;10.25;2.05;;;14.40;83.40;;;;;;5084310;28;20216;-76
2023/05/31 02:55:20;;;;;;;5.40;1.98;;;14.50;83.60;;;;;;5083744;28;20215;-77
2023/05/31 02:58:47;;;;;;;5.82;1.60;;;14.60;85.50;;;;;;5080646;28;20249;-76
2023/05/31 03:01:40;;;;;;;7.53;2.22;;;14.50;84.00;;;;;;5076083;28;20236;-77
2023/05/31 03:04:41;;;;;;;5.38;2.30;;;14.30;85.20;;;;;;5060795;28;20910;-77
2023/05/31 03:07:35;;;;;;;4.15;2.05;;;14.20;85.80;;;;;;5057676;28;20227;-75
2023/05/31 03:10:24;;;;;;;4.15;1.85;;;14.10;86.60;;;;;;5056033;28;20216;-76
2023/05/31 03:13:13;;;;;;;7.03;1.92;;;14.30;86.50;;;;;;5060632;28;20219;-75
2023/05/31 03:16:02;;;;;;;4.35;1.90;;;14.50;85.90;;;;;;5069408;28;20219;-75
2023/05/31 03:18:53;;;;;;;6.55;1.88;;;14.40;85.70;;;;;;5064487;28;20227;-75
2023/05/31 03:21:43;;;;;;;6.88;2.60;;;14.70;85.40;;;;;;5063715;28;20235;-78
2023/05/31 03:24:37;;;;;;;7.22;1.98;;;14.70;84.70;;;;;;5074594;28;20247;-76
2023/05/31 03:27:26;;;;;;;4.20;1.85;;;14.80;84.80;;;;;;5056389;28;20239;-76
2023/05/31 03:30:15;;;;;;;3.08;1.70;;;14.50;85.30;;;;;;5066322;28;20251;-76
2023/05/31 03:33:12;;;;;;;4.90;1.80;;;14.60;85.20;;;;;;5065026;28;20223;-76
2023/05/31 03:36:01;;;;;;;5.47;2.00;;;14.80;85.90;;;;;;5084702;28;20243;-77
2023/05/31 03:38:52;;;;;;;4.35;2.10;;;14.60;85.30;;;;;;5063217;28;20231;-80
2023/05/31 03:41:42;;;;;;;6.72;2.08;;;14.80;85.70;;;;;;5062192;28;20236;-80
2023/05/31 03:44:31;;;;;;;3.20;1.80;;;14.90;84.70;;;;;;5051182;28;21103;-78
2023/05/31 03:47:20;;;;;;;5.20;1.80;;;14.80;85.00;;;;;;5057131;28;20220;-79
2023/05/31 03:50:10;;;;;;;9.77;2.03;;;15.10;85.20;;;;;;5053652;28;20219;-78
2023/05/31 03:52:59;;;;;;;5.30;1.63;;;15.20;84.40;;;;;;5040380;28;20231;-78
2023/05/31 03:55:48;;;;;;;5.57;1.88;;;14.90;84.50;;;;;;5052605;28;20266;-79
2023/05/31 03:58:39;;;;;;;7.00;2.10;;;14.80;84.60;;;;;;5067562;28;20224;-79
2023/05/31 04:01:29;;;;;;;5.22;2.00;;;14.70;84.80;;;;;;5046475;28;20224;-79
2023/05/31 04:04:18;;;;;;;6.40;2.13;;;14.60;85.00;;;;;;5070707;28;20222;-79
2023/05/31 04:07:08;;;;;;;6.18;1.83;;;14.80;85.60;;;;;;5080368;28;20303;-79
2023/05/31 04:09:57;;;;;;;6.25;1.90;;;15.00;85.20;;;;;;5085147;28;20230;-78
2023/05/31 04:12:46;;;;;;;4.50;2.00;;;14.80;84.50;;;;;;5073552;28;20651;-78
2023/05/31 04:15:36;;;;;;;5.28;1.73;;;14.90;85.40;;;;;;5045993;28;20239;-80
2023/05/31 04:18:25;;;;;;;6.22;1.85;;;14.60;85.50;;;;;;5048721;28;20228;-81
2023/05/31 04:21:14;;;;;;;6.07;2.13;;;14.60;85.20;;;;;;5047106;28;20302;-81
2023/05/31 04:24:04;;;;;;;6.68;1.90;;;14.80;85.70;;;;;;5081085;28;20215;-80
2023/05/31 04:26:53;;;;;;;7.13;2.05;;;14.90;84.60;;;;;;5069555;28;20593;-81
2023/05/31 04:29:42;;;;;;;4.78;2.03;;;15.00;84.60;;;;;;5059173;28;20226;-79
2023/05/31 04:32:33;;;;;;;6.57;2.10;;;15.20;84.60;;;;;;5064544;28;20228;-80
2023/05/31 04:35:22;;;;;;;3.28;1.75;;;15.20;84.20;;;;;;5051592;28;20220;-80
2023/05/31 04:38:14;;;;;;;4.75;1.73;;;15.50;85.10;;;;;;5048269;28;20228;-77
2023/05/31 04:41:04;;;;;;;5.10;1.77;;;15.40;82.70;;;;;;5052414;28;20318;-78
2023/05/31 04:43:53;;;;;;;4.97;1.70;;;15.60;82.90;;;;;;5064541;28;20595;-78
2023/05/31 04:46:43;;;;;;;5.05;1.70;;;15.50;82.40;;;;;;5060290;28;20224;-76
2023/05/31 04:49:34;;;;;;;7.68;1.75;;;15.50;82.80;;;;;;5075752;28;20377;-77
2023/05/31 04:52:42;;;;;;;6.20;1.60;;;15.60;81.80;;;;;;5071329;28;20227;-78
2023/05/31 04:55:31;;;;;;;4.68;1.90;;;15.90;81.40;;;;;;5064217;28;20247;-80
2023/05/31 04:58:26;;;;;;;4.25;1.65;;;16.10;81.00;;;;;;5053660;28;20246;-79
2023/05/31 05:01:15;;;;;;;5.13;2.17;;;16.20;80.70;;;;;;5073259;28;20223;-78
2023/05/31 05:04:21;;;;;;;7.38;2.30;;;15.80;80.40;;;;;;5058171;28;20219;-79
2023/05/31 05:07:12;;;;;;;7.72;1.92;;;15.90;80.80;;;;;;5062017;28;20220;-77
2023/05/31 05:10:02;;;;;;;5.72;1.70;;;15.70;80.30;;;;;;5068344;28;20242;-78
2023/05/31 05:12:52;;;;;;;5.65;1.63;;;15.90;80.70;;;;;;5050045;28;20439;-78
2023/05/31 05:15:41;;;;;;;8.50;1.85;;;15.90;80.10;;;;;;5055737;28;20224;-78
2023/05/31 05:18:30;;;;;;;9.05;2.00;;;15.90;79.60;;;;;;5073089;28;20265;-79
2023/05/31 05:21:19;;;;;;;11.40;2.53;;;15.90;80.70;;;;;;5060084;28;20226;-78
2023/05/31 05:24:09;;;;;;;8.10;2.08;;;15.90;79.20;;;;;;5050107;28;20932;-78
2023/05/31 05:26:59;;;;;;;9.75;2.03;;;16.20;79.80;;;;;;5069850;28;20697;-76
2023/05/31 05:29:48;;;;;;;8.30;1.92;;;16.80;80.40;;;;;;5055598;28;20623;-78
2023/05/31 05:32:38;;;;;;;5.72;1.65;;;17.30;77.30;;;;;;5056301;28;20215;-76
2023/05/31 05:35:27;;;;;;;5.47;1.80;;;17.40;75.80;;;;;;5056756;28;20237;-77
2023/05/31 05:38:20;;;;;;;7.35;1.90;;;17.50;75.70;;;;;;5054549;28;20251;-77
2023/05/31 05:41:12;;;;;;;9.85;1.85;;;17.10;73.80;;;;;;5064565;28;20332;-76
2023/05/31 05:44:06;;;;;;;9.65;1.77;;;17.10;74.70;;;;;;5054864;28;20341;-78
2023/05/31 05:46:57;;;;;;;9.32;2.20;;;17.20;74.40;;;;;;5049072;28;20362;-78
2023/05/31 05:49:48;;;;;;;7.47;1.67;;;16.90;74.50;;;;;;5062951;28;20377;-80
2023/05/31 05:52:37;;;;;;;8.90;1.70;;;17.00;74.50;;;;;;5044164;28;20227;-78
2023/05/31 05:55:28;;;;;;;10.60;1.83;;;17.00;75.20;;;;;;5043270;28;20239;-81
2023/05/31 05:58:21;;;;;;;5.65;1.90;;;16.90;74.70;;;;;;5039113;28;20228;-80
2023/05/31 06:01:48;;;;;;;9.38;1.83;;;17.30;75.90;;;;;;5071093;28;20661;-82
2023/05/31 06:04:38;;;;;;;7.30;1.80;;;17.80;74.20;;;;;;5050078;28;20231;-77
2023/05/31 06:07:27;;;;;;;5.55;1.50;;;18.10;73.00;;;;;;5060239;28;20216;-79
2023/05/31 06:10:16;;;;;;;6.13;1.85;;;18.00;71.10;;;;;;5041311;28;20224;-76
2023/05/31 06:13:06;;;;;;;11.73;2.47;;;18.10;71.60;;;;;;5059168;28;20251;-75
2023/05/31 06:15:56;;;;;;;8.45;1.75;;;18.10;70.60;;;;;;5062526;28;20223;-75
2023/05/31 06:18:45;;;;;;;4.93;1.80;;;18.30;71.70;;;;;;5052539;28;20226;-75
2023/05/31 06:21:34;;;;;;;6.82;1.90;;;18.20;69.90;;;;;;5066501;28;20223;-78
2023/05/31 06:24:24;;;;;;;8.07;2.10;;;18.20;71.30;;;;;;5073432;28;20287;-73
2023/05/31 06:27:14;;;;;;;7.68;1.90;;;18.40;70.60;;;;;;5060291;28;20213;-71
2023/05/31 06:30:08;;;;;;;5.55;1.85;;;18.20;67.20;;;;;;5058809;28;20319;-77
2023/05/31 06:33:05;;;;;;;8.63;1.75;;;18.20;67.40;;;;;;5075974;28;20211;-73
2023/05/31 06:35:54;;;;;;;4.65;1.70;;;18.50;69.00;;;;;;5046264;28;20223;-72
2023/05/31 06:38:43;;;;;;;6.18;1.67;;;18.60;67.10;;;;;;5077482;28;20231;-78
2023/05/31 06:41:34;;;;;;;6.25;1.67;;;18.90;65.90;;;;;;5082379;28;20224;-87
2023/05/31 06:44:38;;;;;;;4.65;1.60;;;19.70;64.60;;;;;;5073666;28;20249;-76
2023/05/31 06:48:05;;;;;;;4.63;2.03;;;19.90;63.60;;;;;;5088014;28;20220;-78
2023/05/31 06:51:13;;;;;;;6.50;1.98;;;19.70;60.80;;;;;;5064507;28;20259;-78
2023/05/31 06:54:30;;;;;;;5.20;1.98;;;19.70;61.60;;;;;;5067336;28;20243;-76
2023/05/31 06:57:22;;;;;;;4.78;1.73;;;19.60;59.60;;;;;;5076487;28;20247;-78
2023/05/31 07:00:13;;;;;;;10.55;1.92;;;19.50;59.10;;;;;;5054964;28;20232;-80
2023/05/31 07:03:05;;;;;;;5.43;1.55;;;19.70;58.80;;;;;;5059776;28;20223;-81
2023/05/31 07:05:55;;;;;;;6.15;1.55;;;19.80;57.50;;;;;;5056512;28;20242;-79
2023/05/31 07:08:45;;;;;;;2.83;1.30;;;19.80;59.30;;;;;;5066741;28;20216;-80
2023/05/31 07:12:07;;;;;;;5.80;2.53;;;20.10;57.00;;;;;;5078642;28;20227;-80
2023/05/31 07:14:56;;;;;;;5.80;1.60;;;20.30;54.00;;;;;;5069009;28;20229;-80
2023/05/31 07:17:45;;;;;;;3.22;1.35;;;20.60;52.80;;;;;;5067066;28;20334;-81
2023/05/31 07:20:37;;;;;;;2.20;1.10;;;21.00;51.60;;;;;;5066852;28;20934;-78
2023/05/31 07:23:27;;;;;;;5.43;1.58;;;21.20;49.10;;;;;;5067150;28;20311;-79
2023/05/31 07:26:16;;;;;;;6.53;1.98;;;21.40;49.60;;;;;;5079119;28;20224;-78
2023/05/31 07:29:06;;;;;;;5.05;2.30;;;22.00;52.20;;;;;;5077527;28;20279;-82
2023/05/31 07:31:54;;;;;;;9.43;1.80;;;22.40;52.70;;;;;;5063855;28;20228;-78
2023/05/31 07:34:43;;;;;;;9.23;1.67;;;22.70;50.10;;;;;;5061673;28;20251;-81
2023/05/31 07:37:54;;;;;;;7.72;1.50;;;23.20;50.30;;;;;;5072975;28;20342;-81
2023/05/31 07:40:44;;;;;;;5.68;1.70;;;23.60;49.00;;;;;;5063305;28;20414;-82
2023/05/31 07:43:34;;;;;;;6.10;1.92;;;23.80;47.50;;;;;;5057841;28;20219;-82
2023/05/31 07:46:23;;;;;;;8.25;1.70;;;24.10;45.70;;;;;;5059571;28;20784;-82
2023/05/31 07:49:12;;;;;;;6.78;2.55;;;24.00;45.00;;;;;;5047531;28;20751;-82
2023/05/31 07:52:01;;;;;;;4.35;1.52;;;24.40;46.60;;;;;;5060010;28;20862;-82
2023/05/31 07:54:53;;;;;;;8.65;1.50;;;24.50;45.70;;;;;;5064348;28;20224;-83
2023/05/31 07:57:42;;;;;;;6.00;1.55;;;24.90;45.70;;;;;;5066484;28;20228;-82
2023/05/31 08:00:31;;;;;;;5.63;1.67;;;25.10;46.20;;;;;;5069392;28;20228;-82
2023/05/31 08:03:22;;;;;;;3.50;1.60;;;25.70;44.90;;;;;;5040839;28;20259;-82
2023/05/31 08:06:12;;;;;;;7.10;1.73;;;25.90;43.20;;;;;;5047672;28;20232;-76
2023/05/31 08:09:01;;;;;;;8.40;2.10;;;25.70;43.50;;;;;;5045143;28;20220;-83
2023/05/31 08:11:53;;;;;;;7.32;2.30;;;26.10;44.20;;;;;;5074705;28;20233;-76
2023/05/31 08:14:42;;;;;;;4.13;1.55;;;26.30;42.70;;;;;;5061356;28;20231;-78
2023/05/31 08:17:31;;;;;;;5.25;1.50;;;26.10;41.40;;;;;;5066475;28;20257;-75
2023/05/31 08:20:20;;;;;;;5.60;1.80;;;26.60;40.70;;;;;;5061272;28;20219;-82
2023/05/31 08:23:09;;;;;;;4.15;1.60;;;27.00;40.90;;;;;;5065178;28;20224;-82
2023/05/31 08:25:58;;;;;;;9.30;1.70;;;27.00;41.00;;;;;;5065518;28;20220;-83
2023/05/31 08:28:50;;;;;;;4.50;1.80;;;27.00;44.30;;;;;;5043300;28;20264;-82
2023/05/31 08:31:39;;;;;;;7.53;1.77;;;26.90;42.30;;;;;;5045569;28;20247;-81
2023/05/31 08:34:29;;;;;;;4.28;1.65;;;27.20;41.50;;;;;;5051913;28;20224;-85
2023/05/31 08:37:20;;;;;;;4.47;1.83;;;26.80;43.40;;;;;;5048304;28;20224;-70
2023/05/31 08:40:09;;;;;;;2.35;1.20;;;27.30;41.80;;;;;;5065707;28;20219;-73
2023/05/31 08:43:02;;;;;;;5.90;2.70;;;27.70;40.20;;;;;;5071141;28;20227;-76
2023/05/31 08:45:56;;;;;;;4.75;1.55;;;27.90;40.80;;;;;;5050489;28;20239;-75
2023/05/31 08:48:53;;;;;;;8.50;1.60;;;28.20;41.30;;;;;;5050310;28;20216;-76
2023/05/31 08:51:44;;;;;;;22.00;2.80;;;28.00;38.70;;;;;;5042474;28;20810;-77
2023/05/31 08:54:33;;;;;;;3.25;1.45;;;28.20;41.50;;;;;;5078041;28;20308;-76
2023/05/31 08:57:22;;;;;;;10.20;1.90;;;28.40;41.30;;;;;;5059631;28;20303;-76
2023/05/31 09:00:12;;;;;;;4.20;1.58;;;28.80;40.40;;;;;;5057790;28;20234;-76
2023/05/31 09:03:03;;;;;;;2.30;1.40;;;28.90;39.30;;;;;;5049934;28;20237;-75
2023/05/31 09:05:55;;;;;;;3.20;1.30;;;29.00;37.60;;;;;;5038801;28;20293;-75
2023/05/31 09:08:44;;;;;;;4.25;1.40;;;29.10;39.30;;;;;;5039281;28;20268;-75
2023/05/31 09:11:37;;;;;;;2.83;1.83;;;29.40;39.80;;;;;;5034977;28;20232;-76
2023/05/31 09:14:26;;;;;;;1.77;1.65;;;29.40;38.40;;;;;;5043620;28;20726;-75
2023/05/31 09:17:17;;;;;;;5.60;1.60;;;29.10;37.80;;;;;;5049025;28;20220;-75
2023/05/31 09:20:07;;;;;;;2.75;1.45;;;29.00;39.50;;;;;;5057671;28;20219;-74
2023/05/31 09:22:56;;;;;;;5.18;1.67;;;28.70;36.80;;;;;;5039896;28;20212;-75
2023/05/31 09:25:46;;;;;;;4.65;1.92;;;29.00;39.80;;;;;;5051174;28;20718;-73
2023/05/31 09:28:35;;;;;;;5.35;1.70;;;29.90;38.90;;;;;;5053525;28;20223;-72
2023/05/31 09:31:25;;;;;;;5.68;1.30;;;30.20;38.50;;;;;;5046555;28;20872;-73
2023/05/31 09:34:25;;;;;;;6.45;1.60;;;30.50;37.70;;;;;;5032523;28;20238;-74
2023/05/31 09:37:26;;;;;;;4.22;1.60;;;31.00;36.60;;;;;;5037266;28;20244;-73
2023/05/31 09:40:15;;;;;;;5.13;1.55;;;30.60;36.40;;;;;;5032183;28;20228;-72
2023/05/31 09:43:07;;;;;;;5.88;1.67;;;31.50;37.50;;;;;;5045968;28;20262;-71
2023/05/31 09:45:56;;;;;;;7.03;1.40;;;31.70;34.40;;;;;;5042087;28;20334;-70
2023/05/31 09:48:46;;;;;;;34.25;1.90;;;32.40;35.70;;;;;;5057979;28;20231;-70
2023/05/31 09:51:36;;;;;;;9.07;1.60;;;33.40;35.50;;;;;;5055972;28;20281;-72
2023/05/31 09:54:27;;;;;;;5.00;1.88;;;34.50;34.00;;;;;;5053435;28;20239;-71
2023/05/31 09:57:33;;;;;;;4.13;2.00;;;34.90;33.70;;;;;;5052403;28;20226;-72
2023/05/31 10:00:22;;;;;;;6.28;1.52;;;34.40;35.30;;;;;;5057605;28;20308;-73
2023/05/31 10:03:11;;;;;;;4.60;1.50;;;35.10;33.50;;;;;;5057233;28;20230;-73
2023/05/31 10:06:01;;;;;;;4.00;1.50;;;35.60;33.30;;;;;;5061754;28;20288;-72
2023/05/31 10:08:51;;;;;;;5.72;1.70;;;35.30;32.70;;;;;;5048150;28;20235;-72
2023/05/31 10:11:45;;;;;;;5.35;1.70;;;35.30;33.10;;;;;;5065351;28;20270;-71
2023/05/31 10:14:39;;;;;;;12.38;1.63;;;36.10;31.80;;;;;;5061313;28;20227;-72
2023/05/31 10:17:30;;;;;;;5.95;2.45;;;36.90;31.70;;;;;;5058434;28;21002;-70
2023/05/31 10:20:20;;;;;;;4.70;1.60;;;38.20;31.80;;;;;;5054982;28;20223;-69
2023/05/31 10:23:16;;;;;;;3.35;1.33;;;39.20;31.50;;;;;;5058788;28;20234;-70
2023/05/31 10:26:13;;;;;;;2.72;1.38;;;40.00;30.70;;;;;;5050832;28;20227;-73
2023/05/31 10:29:10;;;;;;;3.30;1.60;;;40.10;30.40;;;;;;5048844;28;20274;-70
2023/05/31 10:32:07;;;;;;;5.63;1.58;;;40.40;30.70;;;;;;5056835;28;20320;-70
2023/05/31 10:34:56;;;;;;;3.10;1.30;;;40.60;30.40;;;;;;5035685;28;20260;-71
2023/05/31 10:37:47;;;;;;;3.00;1.27;;;39.70;29.50;;;;;;5045054;28;20223;-69
2023/05/31 10:40:44;;;;;;;5.18;1.48;;;39.90;30.00;;;;;;5059292;28;20231;-70
2023/05/31 10:43:39;;;;;;;4.00;1.40;;;41.40;30.10;;;;;;5059679;28;20695;-73
2023/05/31 10:46:31;;;;;;;2.83;1.80;;;42.20;29.60;;;;;;5041679;28;20306;-73
2023/05/31 10:49:21;;;;;;;3.65;1.70;;;42.40;27.90;;;;;;5035931;28;20213;-71
2023/05/31 10:52:10;;;;;;;4.32;1.52;;;42.10;28.70;;;;;;5052183;28;20226;-71
2023/05/31 10:55:19;;;;;;;2.95;1.27;;;42.60;29.10;;;;;;5070576;28;20604;-69
2023/05/31 10:58:24;;;;;;;3.85;1.30;;;42.10;27.70;;;;;;5053612;28;20971;-71
2023/05/31 11:01:15;;;;;;;5.28;1.70;;;42.50;28.50;;;;;;5056057;28;20220;-72
2023/05/31 11:04:20;;;;;;;5.97;1.70;;;41.10;26.80;;;;;;5057359;28;20377;-72
2023/05/31 11:07:14;;;;;;;5.70;1.30;;;40.10;28.20;;;;;;5050413;28;20295;-72
2023/05/31 11:10:06;;;;;;;8.32;1.95;;;39.00;29.70;;;;;;5065400;28;20361;-71
2023/05/31 11:12:58;;;;;;;3.63;1.70;;;39.20;29.10;;;;;;5060225;28;20231;-70
2023/05/31 11:15:47;;;;;;;4.65;1.35;;;39.10;28.50;;;;;;5061260;28;20227;-69
2023/05/31 11:18:42;;;;;;;5.43;1.63;;;38.80;27.70;;;;;;5058147;28;20320;-68
2023/05/31 11:21:48;;;;;;;2.90;1.15;;;39.50;28.20;;;;;;5063861;28;20245;-69
2023/05/31 11:24:39;;;;;;;1.90;1.15;;;40.80;29.00;;;;;;5064232;28;20637;-71
2023/05/31 11:27:39;;;;;;;2.85;1.42;;;41.80;28.00;;;;;;5060224;28;20227;-70
2023/05/31 11:30:36;;;;;;;2.88;1.50;;;41.40;27.10;;;;;;5062532;28;20715;-69
2023/05/31 11:33:26;;;;;;;5.45;2.17;;;40.40;27.40;;;;;;5060957;28;20232;-72
2023/05/31 11:36:16;;;;;;;11.75;3.47;;;42.60;27.90;;;;;;5057814;28;20344;-70
2023/05/31 11:39:10;;;;;;;1.70;1.60;;;42.90;27.70;;;;;;5063166;28;20312;-71
2023/05/31 11:42:00;;;;;;;5.68;1.58;;;43.50;26.70;;;;;;5060861;28;20226;-72
2023/05/31 11:44:51;;;;;;;6.65;1.88;;;41.90;27.50;;;;;;5051303;28;20243;-71
2023/05/31 11:47:50;;;;;;;8.05;1.80;;;43.20;28.30;;;;;;5062301;28;20303;-71
2023/05/31 11:50:39;;;;;;;6.05;1.50;;;44.70;27.60;;;;;;5062982;28;20228;-71
2023/05/31 11:53:28;;;;;;;8.88;1.65;;;44.20;26.50;;;;;;5054529;28;20230;-70
2023/05/31 11:56:19;;;;;;;1.90;1.20;;;42.50;27.80;;;;;;5070769;28;21103;-71
2023/05/31 11:59:08;;;;;;;7.22;1.80;;;41.30;27.40;;;;;;5067001;28;20218;-71
2023/05/31 12:02:02;;;;;;;3.72;1.50;;;39.50;29.00;;;;;;5067239;28;20231;-70
2023/05/31 12:04:58;;;;;;;3.97;1.88;;;39.20;29.70;;;;;;5063532;28;20250;-70
2023/05/31 12:07:47;;;;;;;9.30;1.90;;;39.40;28.50;;;;;;5064829;28;20430;-68
2023/05/31 12:10:36;;;;;;;2.97;1.60;;;40.90;28.60;;;;;;5059170;28;20227;-70
2023/05/31 12:13:27;;;;;;;2.17;1.38;;;42.90;27.80;;;;;;5056723;28;20312;-70
2023/05/31 12:16:16;;;;;;;4.65;2.17;;;44.60;27.60;;;;;;5060301;28;20225;-69
2023/05/31 12:19:12;;;;;;;2.20;1.60;;;47.50;27.10;;;;;;5056112;28;20228;-73
2023/05/31 12:22:03;;;;;;;2.45;1.40;;;49.50;25.50;;;;;;5058441;28;20262;-70
2023/05/31 12:24:55;;;;;;;5.85;1.80;;;51.90;25.40;;;;;;5077265;28;20549;-70
2023/05/31 12:27:44;;;;;;;11.35;2.42;;;51.60;24.30;;;;;;5060755;28;20310;-71
2023/05/31 12:30:43;;;;;;;5.40;1.70;;;51.40;24.00;;;;;;5059754;28;20245;-71
2023/05/31 12:33:35;;;;;;;11.70;2.25;;;51.70;25.20;;;;;;5061296;28;20234;-71
2023/05/31 12:36:25;;;;;;;4.28;1.90;;;51.70;23.90;;;;;;5058675;28;20228;-71
2023/05/31 12:39:16;;;;;;;4.43;1.60;;;51.20;23.60;;;;;;5061876;28;20223;-72
2023/05/31 12:42:06;;;;;;;2.65;1.50;;;49.10;22.90;;;;;;5061447;28;20220;-71
2023/05/31 12:44:55;;;;;;;7.55;1.80;;;47.30;23.70;;;;;;5057764;28;20299;-71
2023/05/31 12:47:45;;;;;;;3.55;1.90;;;45.30;25.40;;;;;;5067241;28;20225;-69
2023/05/31 12:50:34;;;;;;;3.53;1.90;;;41.10;25.80;;;;;;5061079;28;20234;-71
2023/05/31 12:53:30;;;;;;;2.47;1.50;;;37.10;26.80;;;;;;5039165;28;20254;-70
2023/05/31 12:56:18;;;;;;;6.03;2.00;;;34.30;28.30;;;;;;5055685;28;20219;-71
2023/05/31 12:59:08;;;;;;;4.10;1.90;;;32.30;29.40;;;;;;5070877;28;20276;-70
2023/05/31 13:02:01;;;;;;;3.08;1.80;;;31.40;31.70;;;;;;5059191;28;20239;-70
2023/05/31 13:04:52;;;;;;;5.18;2.03;;;;;;;;;;5056572;28;20307;-69
2023/05/31 13:07:46;;;;;;;4.03;1.90;;;30.00;32.50;;;;;;5059972;28;20334;-68
2023/05/31 13:10:36;;;;;;;4.63;1.88;;;29.30;32.20;;;;;;5053279;28;20238;-70
2023/05/31 13:13:25;;;;;;;5.72;1.83;;;28.70;32.10;;;;;;5078431;28;20511;-69
2023/05/31 13:16:14;;;;;;;4.93;2.00;;;28.60;33.00;;;;;;5059450;28;20825;-71
2023/05/31 13:19:05;;;;;;;5.22;1.58;;;28.30;33.90;;;;;;5065913;28;20308;-70
2023/05/31 13:21:56;;;;;;;2.47;1.80;;;27.90;34.60;;;;;;5058522;28;20226;-70
2023/05/31 13:24:45;;;;;;;5.32;1.90;;;27.70;33.70;;;;;;5071974;28;20306;-69
2023/05/31 13:27:34;;;;;;;6.32;1.60;;;27.50;33.90;;;;;;5074145;28;20247;-70
2023/05/31 13:30:23;;;;;;;4.78;1.90;;;27.30;32.80;;;;;;5080471;28;20991;-70
2023/05/31 13:33:11;;;;;;;9.52;5.85;;;27.30;35.00;;;;;;5045592;28;20208;-69
2023/05/31 13:36:00;;;;;;;4.63;2.20;;;27.10;34.60;;;;;;5080674;28;20948;-72
2023/05/31 13:38:52;;;;;;;3.90;1.67;;;27.00;35.30;;;;;;5056674;28;20265;-70
2023/05/31 13:41:42;;;;;;;3.72;1.90;;;26.70;35.40;;;;;;5058436;28;20246;-71
2023/05/31 13:44:31;;;;;;;3.97;1.90;;;26.70;37.00;;;;;;5064510;28;20255;-70
2023/05/31 13:47:23;;;;;;;5.00;2.17;;;26.60;36.30;;;;;;5058529;28;20223;-72
2023/05/31 13:50:12;;;;;;;5.65;1.40;;;26.60;37.20;;;;;;5048189;28;20224;-71
2023/05/31 13:53:01;;;;;;;5.50;1.90;;;26.40;36.50;;;;;;5052566;28;21017;-70
2023/05/31 13:55:52;;;;;;;4.13;1.67;;;26.20;36.10;;;;;;5073703;28;20734;-72
2023/05/31 13:58:51;;;;;;;4.85;2.00;;;26.20;37.00;;;;;;5077952;28;20219;-71
2023/05/31 14:01:40;;;;;;;5.10;1.85;;;26.00;37.10;;;;;;5078354;28;20238;-71
2023/05/31 14:04:29;;;;;;;2.13;1.73;;;26.20;36.60;;;;;;5068857;28;20782;-72
2023/05/31 14:07:19;;;;;;;4.05;1.75;;;25.90;36.60;;;;;;5036917;28;20231;-72
2023/05/31 14:10:08;;;;;;;9.05;1.70;;;25.70;35.70;;;;;;5069454;28;20218;-71
2023/05/31 14:12:59;;;;;;;6.13;2.30;;;25.70;36.40;;;;;;5077274;28;20318;-71
2023/05/31 14:15:48;;;;;;;4.65;2.33;;;25.80;36.60;;;;;;5051656;28;20223;-72
2023/05/31 14:18:37;;;;;;;2.60;2.30;;;25.70;35.90;;;;;;5077290;28;20339;-72
2023/05/31 14:21:26;;;;;;;6.57;1.70;;;25.60;36.30;;;;;;5059871;28;20361;-71
2023/05/31 14:24:15;;;;;;;6.22;1.88;;;25.70;37.40;;;;;;5077363;28;20231;-70
2023/05/31 14:27:05;;;;;;;5.10;1.70;;;25.70;38.20;;;;;;5077185;28;20219;-71
2023/05/31 14:29:55;;;;;;;2.78;2.00;;;25.50;37.20;;;;;;5056623;28;21118;-71
2023/05/31 14:32:44;;;;;;;4.72;1.70;;;25.40;36.70;;;;;;5074581;28;20265;-72
2023/05/31 14:35:34;;;;;;;2.80;1.85;;;25.40;37.90;;;;;;5084108;28;20279;-72
2023/05/31 14:38:23;;;;;;;5.05;1.70;;;25.20;37.90;;;;;;5055308;28;20223;-72
2023/05/31 14:41:22;;;;;;;5.60;1.80;;;25.10;37.00;;;;;;5065984;28;20722;-71
2023/05/31 14:44:11;;;;;;;4.18;1.80;;;25.20;39.40;;;;;;5059301;28;20212;-70
2023/05/31 14:47:02;;;;;;;8.27;1.95;;;25.20;39.00;;;;;;5043705;28;20741;-73
2023/05/31 14:49:53;;;;;;;5.32;2.17;;;25.10;38.20;;;;;;5077154;28;20239;-74
2023/05/31 14:52:42;;;;;;;3.38;1.70;;;25.10;38.70;;;;;;5085206;28;20227;-78